Weather at Greenwood Lake Airport

Public forecast

Using degrees Fahrenheit for public forecast. Weather courtesy of forecast.io.

Closest aviation weather report (METAR) to Greenwood Lake Airport

Closest report is Sussex Airport, 13.2 nm (24.5 km) WNW. Retrieved 2020/10/24 05:28 UTC (16 minutes ago):

KFWN 240528Z AUTO 00000KT 10SM SCT012 BKN026 OVC033 17/15 A3001 RMK AO2 T01670150

Closest aviation forecast (TAF) to Greenwood Lake Airport

Closest forecast is Teterboro Airport, 21.1 nm (39.1 km) SE. Retrieved 2020-10-24 00:24 UTC (5 hours ago):

TAF KTEB 232321Z 2400/2506 21007KT P6SM OVC014 FM240100 VRB03KT 5SM BR OVC010 FM240700 VRB03KT 3SM -DZ BR SCT003 OVC006 TEMPO 2407/2411 1SM -DZ BR BKN003 FM241500 27006KT P6SM OVC018 FM241800 31008KT P6SM BKN030 FM242100 33008KT P6SM BKN040 FM242300 34009G17KT P6SM SCT070